Accueil
METAR-TAF:

METAR-TAF

Aéroports :

Aéroport de Gênes-Christophe Colomb

Gênes, Italie

latitude: 44-25N, longitude: 008-51E, altitude: 2 m

Observation

Le bulletin a été fait il y a 35 minutes, à 08:20 UTC
Vent 5 kt de est/sud-est
Température 21°C
Humidité 49%
Pression 1029 hPa
Visibilité 10 km ou plus
Nuages épars à une hauteur de 7500 ft

METAR: LIMJ 270820Z 12005KT 9999 SCT075 21/10 Q1029

Heure: 10:55 (08:55 UTC)

Prévision

Le bulletin a été fait il y a 3 heures et 5 minutes, à 05:50 UTC
Prévision valable du 27 à 06 UTC au 28 à 06 UTC
Vent 5 kt de direction variable
Visibilité 10 km ou plus
Quelques nuages à une hauteur de 3000 ft
Evoluant progressivement
du 27 à 08 UTC au 27 à 10 UTC
Vent 10 kt de sud
Evoluant progressivement
du 27 à 16 UTC au 27 à 18 UTC
Vent 5 kt de direction variable

TAF: LIMJ 270550Z 2706/2806 VRB05KT 9999 FEW030 BECMG 2708/2710 18010KT BECMG 2716/2718 VRB05KT

Observations et prévisions météorologiques de plus de 4000 aéroports (messages METAR et TAF).

Les stations disponibles sont représentées par des disques jaunes et rouges sur la carte.

Passer la souris dessus pour voir le nom de la station.

Cliquer dessus pour voir les observations et prévisions météorologiques.

Pour changer de carte: cliquez sur les boutons verts avec une croix noire pour zoomer, sur le bouton vert avec un tiret pour effectuer un zoom arrière, ou sur les flèches vertes pour les cartes adjacentes.


METAR-TAF: